Time;durP1;ratioP1;P1;durP2;ratioP2;P2;SDS_P1;SDS_P2;PMS_P1;PMS_P2;Temp;Humidity;BMP_temperature;BMP_pressure;BME280_temperature;BME280_humidity;BME280_pressure;Samples;Min_cycle;Max_cycle;Signal;HPM_P1;HPM_P2
2023/01/30 00:00:53;;;;;;;10.03;5.30;;;2.70;99.90;;;;;;4956216;29;20475;-55
2023/01/30 00:03:21;;;;;;;10.07;5.93;;;2.60;99.90;;;;;;4956160;29;21012;-53
2023/01/30 00:05:47;;;;;;;8.93;4.67;;;2.60;99.90;;;;;;4956390;29;20538;-57
2023/01/30 00:08:15;;;;;;;10.70;5.30;;;2.60;99.90;;;;;;4956190;29;20499;-58
2023/01/30 00:10:41;;;;;;;8.33;4.50;;;2.60;99.90;;;;;;4956136;29;20518;-57
2023/01/30 00:13:10;;;;;;;9.93;4.13;;;2.60;99.90;;;;;;4956075;29;20921;-54
2023/01/30 00:15:37;;;;;;;8.77;5.20;;;2.60;99.90;;;;;;4956081;29;20448;-57
2023/01/30 00:18:04;;;;;;;10.70;6.40;;;2.60;99.90;;;;;;4973093;29;20526;-56
2023/01/30 00:20:31;;;;;;;15.67;7.90;;;2.60;99.90;;;;;;4976988;29;20451;-57
2023/01/30 00:22:58;;;;;;;16.90;6.47;;;2.60;99.90;;;;;;4976928;29;20479;-55
2023/01/30 00:25:25;;;;;;;9.00;5.33;;;2.60;99.90;;;;;;4977343;29;20432;-59
2023/01/30 00:27:53;;;;;;;11.50;8.07;;;2.70;99.90;;;;;;4977131;29;20865;-57
2023/01/30 00:30:21;;;;;;;10.97;6.40;;;2.70;99.90;;;;;;4977062;29;20448;-58
2023/01/30 00:32:48;;;;;;;8.40;4.37;;;2.70;99.90;;;;;;4977372;29;20440;-58
2023/01/30 00:35:15;;;;;;;8.43;5.63;;;2.70;99.90;;;;;;4977175;29;20468;-59
2023/01/30 00:37:42;;;;;;;12.57;8.23;;;2.60;99.90;;;;;;4978215;28;20503;-58
2023/01/30 00:40:10;;;;;;;12.10;5.87;;;2.70;99.90;;;;;;4980671;29;20495;-54
2023/01/30 00:48:14;;;;;;;14.87;6.90;;;2.70;99.90;;;;;;4981791;29;20491;-58
2023/01/30 00:50:44;;;;;;;11.90;6.90;;;2.60;99.90;;;;;;4981315;29;20431;-57
2023/01/30 00:53:12;;;;;;;9.57;7.10;;;2.60;99.90;;;;;;4981375;29;20435;-56
2023/01/30 00:55:39;;;;;;;11.03;5.80;;;2.60;99.90;;;;;;4980902;29;20440;-57
2023/01/30 00:58:06;;;;;;;9.17;6.20;;;2.60;99.90;;;;;;4980436;29;20515;-57
2023/01/30 01:00:35;;;;;;;8.23;5.70;;;2.60;99.90;;;;;;4981362;29;20436;-57
2023/01/30 01:03:02;;;;;;;9.87;5.80;;;2.50;99.90;;;;;;4981044;29;20448;-57
2023/01/30 01:05:29;;;;;;;12.97;7.10;;;2.50;99.90;;;;;;4980903;29;20486;-56
2023/01/30 01:07:56;;;;;;;12.20;6.83;;;2.50;99.90;;;;;;4980841;29;20451;-55
2023/01/30 01:10:23;;;;;;;20.43;9.43;;;2.50;99.90;;;;;;4980977;29;20436;-56
2023/01/30 01:12:52;;;;;;;14.57;7.37;;;2.50;99.90;;;;;;4980924;29;20459;-57
2023/01/30 01:15:19;;;;;;;10.63;6.67;;;2.60;99.90;;;;;;4981026;29;20451;-56
2023/01/30 01:17:48;;;;;;;6.70;5.23;;;2.60;99.90;;;;;;4980137;29;20491;-57
2023/01/30 01:20:15;;;;;;;8.10;5.50;;;2.60;99.90;;;;;;4980460;29;20463;-57
2023/01/30 01:22:42;;;;;;;12.20;6.70;;;2.40;99.90;;;;;;4979881;29;20495;-58
2023/01/30 01:25:10;;;;;;;10.97;5.53;;;2.50;99.90;;;;;;4980738;29;20450;-60
2023/01/30 01:27:37;;;;;;;11.53;6.07;;;2.50;99.90;;;;;;4980235;29;20457;-59
2023/01/30 01:30:05;;;;;;;9.53;4.63;;;2.50;99.90;;;;;;4980387;29;20443;-57
2023/01/30 01:32:31;;;;;;;12.37;7.27;;;2.40;99.90;;;;;;4980216;29;20448;-53
2023/01/30 01:35:00;;;;;;;11.57;6.87;;;2.40;99.90;;;;;;4980194;29;20486;-58
2023/01/30 01:37:26;;;;;;;9.40;5.23;;;2.40;99.90;;;;;;4979834;29;20559;-58
2023/01/30 01:42:39;;;;;;;17.43;8.07;;;2.40;99.90;;;;;;4980135;29;20470;-56
2023/01/30 01:45:17;;;;;;;12.90;7.07;;;2.40;99.90;;;;;;4980342;29;20486;-57
2023/01/30 01:47:49;;;;;;;10.07;5.57;;;2.40;99.90;;;;;;4979971;29;20463;-56
2023/01/30 01:50:21;;;;;;;17.53;8.30;;;2.40;99.90;;;;;;4979940;28;20428;-57
2023/01/30 01:52:51;;;;;;;9.63;6.60;;;2.40;99.90;;;;;;4979669;29;20483;-56
2023/01/30 01:55:20;;;;;;;11.37;6.40;;;2.40;99.90;;;;;;4980167;29;20547;-59
2023/01/30 01:57:51;;;;;;;8.23;5.73;;;2.40;99.90;;;;;;4979702;29;20498;-58
2023/01/30 02:00:20;;;;;;;10.80;7.33;;;2.40;99.90;;;;;;4979440;29;20458;-58
2023/01/30 02:02:52;;;;;;;9.93;6.43;;;2.50;99.90;;;;;;4979348;29;20452;-57
2023/01/30 02:05:21;;;;;;;16.70;7.60;;;2.50;99.90;;;;;;4979503;29;20424;-56
2023/01/30 02:07:53;;;;;;;12.80;6.80;;;2.50;99.90;;;;;;4979506;29;20472;-57
2023/01/30 02:10:25;;;;;;;16.70;7.17;;;2.50;99.90;;;;;;4979890;29;20435;-57
2023/01/30 02:12:52;;;;;;;14.10;7.63;;;2.50;99.90;;;;;;4979726;29;20479;-54
2023/01/30 02:15:20;;;;;;;15.27;7.87;;;2.50;99.90;;;;;;4979881;29;20954;-61
2023/01/30 02:17:47;;;;;;;11.67;5.63;;;2.50;99.90;;;;;;4980230;29;20471;-58
2023/01/30 02:20:27;;;;;;;15.17;6.87;;;2.50;99.90;;;;;;4980223;29;20443;-56
2023/01/30 02:23:29;;;;;;;11.33;6.60;;;2.50;99.90;;;;;;4979716;29;20794;-57
2023/01/30 02:26:36;;;;;;;9.67;6.47;;;2.40;99.90;;;;;;4968619;29;20446;-59
2023/01/30 02:29:39;;;;;;;15.83;6.80;;;2.40;99.90;;;;;;4962499;29;20491;-57
2023/01/30 02:32:14;;;;;;;11.50;6.00;;;2.40;99.90;;;;;;4978854;29;20498;-56
2023/01/30 02:34:50;;;;;;;16.00;8.40;;;2.40;99.90;;;;;;4978423;29;20454;-59
2023/01/30 02:37:31;;;;;;;16.40;6.83;;;2.40;99.90;;;;;;4979268;29;20527;-56
2023/01/30 02:40:18;;;;;;;10.10;7.50;;;2.40;99.90;;;;;;4979761;29;20470;-57
2023/01/30 02:42:51;;;;;;;13.80;8.20;;;2.40;99.90;;;;;;4979412;29;20491;-57
2023/01/30 02:45:29;;;;;;;14.00;7.20;;;2.40;99.90;;;;;;4979211;29;20419;-55
2023/01/30 02:48:02;;;;;;;10.80;7.53;;;2.50;99.90;;;;;;4979010;29;20475;-58
2023/01/30 02:50:33;;;;;;;12.50;7.13;;;2.40;99.90;;;;;;4978764;29;20424;-57
2023/01/30 02:53:00;;;;;;;16.60;7.90;;;2.40;99.90;;;;;;4978630;29;20528;-56
2023/01/30 02:55:31;;;;;;;15.23;6.03;;;2.40;99.90;;;;;;4978479;29;20437;-57
2023/01/30 02:57:58;;;;;;;11.73;6.90;;;2.40;99.90;;;;;;4978753;29;20506;-56
2023/01/30 03:00:39;;;;;;;13.87;6.20;;;2.40;99.90;;;;;;4978167;29;20467;-59
2023/01/30 03:03:19;;;;;;;11.63;6.70;;;2.30;99.90;;;;;;4978413;29;20491;-55
2023/01/30 03:05:58;;;;;;;13.40;6.37;;;2.30;99.90;;;;;;4979203;29;20436;-59
2023/01/30 03:08:32;;;;;;;11.70;6.77;;;2.30;99.90;;;;;;4978619;29;20464;-56
2023/01/30 03:11:01;;;;;;;13.87;7.60;;;2.20;99.90;;;;;;4978758;29;20443;-57
2023/01/30 03:13:42;;;;;;;16.80;7.77;;;2.20;99.90;;;;;;4978431;29;20479;-56
2023/01/30 03:16:15;;;;;;;13.30;6.20;;;2.20;99.90;;;;;;4978777;28;20460;-58
2023/01/30 03:18:44;;;;;;;11.27;7.43;;;2.10;99.90;;;;;;4978312;29;20498;-54
2023/01/30 03:21:12;;;;;;;13.13;7.80;;;2.20;99.90;;;;;;4978623;29;20488;-52
2023/01/30 03:23:39;;;;;;;20.07;9.33;;;2.20;99.90;;;;;;4978465;29;20468;-58
2023/01/30 03:26:15;;;;;;;15.13;9.27;;;2.20;99.90;;;;;;4979220;29;20432;-54
2023/01/30 03:28:42;;;;;;;16.13;7.90;;;2.30;99.90;;;;;;4978545;29;20452;-60
2023/01/30 03:31:10;;;;;;;15.23;6.33;;;2.30;99.90;;;;;;4978331;29;20436;-55
2023/01/30 03:33:37;;;;;;;12.83;7.40;;;2.30;99.90;;;;;;4977504;29;20469;-54
2023/01/30 03:36:05;;;;;;;18.67;9.20;;;2.30;99.90;;;;;;4977539;29;20459;-56
2023/01/30 03:38:34;;;;;;;17.93;8.70;;;2.40;99.90;;;;;;4977551;29;20509;-59
2023/01/30 03:41:01;;;;;;;11.87;6.70;;;2.40;99.90;;;;;;4978381;29;20457;-61
2023/01/30 03:43:28;;;;;;;16.43;8.40;;;2.40;99.90;;;;;;4977605;29;20474;-59
2023/01/30 03:45:55;;;;;;;15.00;6.80;;;2.50;99.90;;;;;;4977503;29;20432;-55
2023/01/30 03:48:22;;;;;;;18.53;9.90;;;2.50;99.90;;;;;;4977940;29;20464;-56
2023/01/30 03:50:51;;;;;;;18.37;8.10;;;2.50;99.90;;;;;;4977950;29;20459;-56
2023/01/30 03:53:21;;;;;;;13.77;7.80;;;2.50;99.90;;;;;;4977166;29;20472;-55
2023/01/30 03:55:48;;;;;;;9.60;6.17;;;2.60;99.90;;;;;;4977435;29;20456;-59
2023/01/30 03:58:14;;;;;;;11.53;6.47;;;2.60;99.90;;;;;;4977372;29;20507;-54
2023/01/30 04:00:41;;;;;;;17.83;8.70;;;2.60;99.90;;;;;;4977665;29;20490;-54
2023/01/30 04:03:08;;;;;;;16.27;6.70;;;2.70;99.90;;;;;;4978053;29;20479;-56
2023/01/30 04:05:35;;;;;;;10.43;6.80;;;2.70;99.90;;;;;;4977568;29;20507;-52
2023/01/30 04:08:02;;;;;;;16.90;9.53;;;2.70;99.90;;;;;;4978348;29;20474;-56
2023/01/30 04:10:30;;;;;;;17.10;7.10;;;2.70;99.90;;;;;;4978105;29;20482;-54
2023/01/30 04:12:57;;;;;;;14.93;8.17;;;2.70;99.90;;;;;;4979046;28;20495;-52
2023/01/30 04:15:23;;;;;;;10.90;7.13;;;2.70;99.90;;;;;;4981544;29;20502;-54
2023/01/30 04:17:50;;;;;;;12.63;8.37;;;2.70;99.90;;;;;;4981441;29;20483;-55
2023/01/30 04:20:18;;;;;;;15.40;8.10;;;2.80;99.90;;;;;;4981591;29;20482;-58
2023/01/30 04:22:45;;;;;;;17.30;10.37;;;2.80;99.90;;;;;;4981717;29;20440;-54
2023/01/30 04:25:12;;;;;;;12.33;6.93;;;2.80;99.90;;;;;;4981557;29;20467;-55
2023/01/30 04:27:40;;;;;;;11.93;7.50;;;2.90;99.90;;;;;;4981191;29;20448;-55
2023/01/30 04:30:08;;;;;;;12.77;6.10;;;2.90;99.90;;;;;;4981242;29;20502;-54
2023/01/30 04:32:35;;;;;;;17.30;7.33;;;2.80;99.90;;;;;;4981380;29;20434;-58
2023/01/30 04:35:02;;;;;;;14.57;7.40;;;2.80;99.90;;;;;;4981125;29;20475;-58
2023/01/30 04:37:29;;;;;;;11.63;7.77;;;2.80;99.90;;;;;;4981175;29;20494;-56
2023/01/30 04:39:57;;;;;;;19.10;8.07;;;2.80;99.90;;;;;;4981208;29;20474;-58
2023/01/30 04:42:27;;;;;;;14.20;6.97;;;2.80;99.90;;;;;;4981370;29;20448;-57
2023/01/30 04:44:55;;;;;;;13.83;6.77;;;2.90;99.90;;;;;;4981172;29;20491;-59
2023/01/30 04:47:22;;;;;;;15.47;8.30;;;2.90;99.90;;;;;;4980699;29;20448;-58
2023/01/30 04:49:49;;;;;;;12.23;6.53;;;2.90;99.90;;;;;;4980960;28;20484;-59
2023/01/30 04:52:18;;;;;;;12.93;5.73;;;3.00;99.90;;;;;;4980714;29;20471;-59
2023/01/30 04:54:45;;;;;;;11.20;6.43;;;3.00;99.90;;;;;;4980778;29;20486;-59
2023/01/30 04:57:12;;;;;;;13.93;6.27;;;3.00;99.90;;;;;;4981319;29;20454;-59
2023/01/30 04:59:39;;;;;;;10.80;6.70;;;3.00;99.90;;;;;;4980773;29;20490;-55
2023/01/30 05:02:07;;;;;;;10.20;6.63;;;3.10;99.90;;;;;;4980485;29;20475;-57
2023/01/30 05:04:34;;;;;;;12.63;6.60;;;3.10;99.90;;;;;;4980610;29;20495;-58
2023/01/30 05:07:01;;;;;;;12.60;7.23;;;3.10;99.90;;;;;;4981155;29;20455;-60
2023/01/30 05:09:30;;;;;;;15.60;7.77;;;3.10;99.90;;;;;;4980300;29;20459;-57
2023/01/30 05:11:57;;;;;;;15.77;7.47;;;3.10;99.90;;;;;;4980063;29;20463;-58
2023/01/30 05:14:31;;;;;;;10.30;8.00;;;3.10;99.90;;;;;;4980251;29;20448;-55
2023/01/30 05:16:58;;;;;;;12.50;7.57;;;3.10;99.90;;;;;;4980883;29;20420;-57
2023/01/30 05:19:27;;;;;;;10.70;5.80;;;3.10;99.90;;;;;;4980792;29;20494;-59
2023/01/30 05:21:54;;;;;;;14.03;7.43;;;3.00;99.90;;;;;;4981267;29;20880;-59
2023/01/30 05:24:21;;;;;;;12.57;7.37;;;3.00;99.90;;;;;;4979596;28;20439;-59
2023/01/30 05:26:48;;;;;;;15.20;8.00;;;3.00;99.90;;;;;;4979703;29;20447;-59
2023/01/30 05:29:18;;;;;;;11.53;6.80;;;2.90;99.90;;;;;;4979683;29;20479;-59
2023/01/30 05:31:44;;;;;;;6.40;5.70;;;2.80;99.90;;;;;;4979763;29;20475;-60
2023/01/30 05:34:12;;;;;;;16.20;7.10;;;2.80;99.90;;;;;;4980393;29;20444;-57
2023/01/30 05:36:40;;;;;;;15.53;6.93;;;2.80;99.90;;;;;;4980054;29;20471;-57
2023/01/30 05:39:07;;;;;;;15.63;6.83;;;2.80;99.90;;;;;;4980049;29;20514;-58
2023/01/30 05:41:34;;;;;;;15.90;7.60;;;2.80;99.90;;;;;;4979994;29;20444;-56
2023/01/30 05:44:01;;;;;;;16.20;8.33;;;2.80;99.90;;;;;;4979948;29;20482;-59
2023/01/30 05:46:27;;;;;;;13.43;7.03;;;2.70;99.90;;;;;;4979671;29;20444;-59
2023/01/30 05:48:54;;;;;;;18.40;8.43;;;2.80;99.90;;;;;;4979356;29;20447;-56
2023/01/30 05:51:26;;;;;;;13.17;6.90;;;2.80;99.90;;;;;;4979154;29;20468;-57
2023/01/30 05:53:55;;;;;;;13.70;7.50;;;2.80;99.90;;;;;;4979408;29;20442;-59
2023/01/30 05:56:22;;;;;;;12.50;7.30;;;2.90;99.90;;;;;;4980180;29;20494;-57
2023/01/30 05:58:52;;;;;;;16.73;7.97;;;2.90;99.90;;;;;;4980316;29;20487;-54
2023/01/30 06:01:23;;;;;;;14.27;6.30;;;2.80;99.90;;;;;;4979747;29;20475;-58
2023/01/30 06:03:52;;;;;;;11.53;6.47;;;2.80;99.90;;;;;;4979090;29;20432;-57
2023/01/30 06:06:19;;;;;;;20.03;8.83;;;2.80;99.90;;;;;;4979437;29;20468;-59
2023/01/30 06:08:46;;;;;;;13.40;8.57;;;2.80;99.90;;;;;;4979476;29;20440;-58
2023/01/30 06:11:17;;;;;;;11.87;6.70;;;2.80;99.90;;;;;;4978681;29;20492;-59
2023/01/30 06:13:45;;;;;;;15.93;9.03;;;2.90;99.90;;;;;;4978787;29;20456;-59
2023/01/30 06:16:14;;;;;;;12.87;6.63;;;2.90;99.90;;;;;;4978718;29;20460;-56
2023/01/30 06:18:41;;;;;;;12.33;7.23;;;2.90;99.90;;;;;;4978733;29;20471;-59
2023/01/30 06:21:08;;;;;;;12.07;6.40;;;2.90;99.90;;;;;;4978851;29;20471;-59
2023/01/30 06:23:39;;;;;;;15.60;7.17;;;2.90;99.90;;;;;;4978754;29;20432;-58
2023/01/30 06:26:06;;;;;;;14.50;6.87;;;3.00;99.90;;;;;;4978530;29;20482;-54
2023/01/30 06:28:34;;;;;;;13.00;7.87;;;3.00;99.90;;;;;;4978804;29;20520;-56
2023/01/30 06:31:01;;;;;;;16.07;8.33;;;3.10;99.90;;;;;;4977722;29;20518;-58
2023/01/30 06:33:31;;;;;;;14.33;7.57;;;3.10;99.90;;;;;;4978312;29;20455;-59
2023/01/30 06:35:58;;;;;;;14.80;7.60;;;3.10;99.90;;;;;;4978073;28;20492;-57
2023/01/30 06:38:24;;;;;;;11.17;6.37;;;3.10;99.90;;;;;;4978013;29;20487;-55
2023/01/30 06:40:54;;;;;;;7.50;5.67;;;3.20;99.90;;;;;;4978510;29;20453;-55
2023/01/30 06:43:22;;;;;;;12.53;6.60;;;3.20;99.90;;;;;;4978377;29;20428;-57
2023/01/30 06:45:50;;;;;;;16.20;7.53;;;3.20;99.90;;;;;;4977986;29;20515;-58
2023/01/30 06:48:17;;;;;;;10.77;5.20;;;3.20;99.90;;;;;;4979151;29;20440;-59
2023/01/30 06:50:46;;;;;;;12.00;7.13;;;3.30;99.90;;;;;;4979404;28;20451;-59
2023/01/30 06:53:13;;;;;;;12.60;6.30;;;3.30;99.90;;;;;;4978254;29;20417;-56
2023/01/30 06:55:40;;;;;;;9.60;6.70;;;3.30;99.90;;;;;;4978299;29;20499;-61
2023/01/30 06:58:09;;;;;;;13.63;7.13;;;3.40;99.90;;;;;;4978043;29;20490;-57
2023/01/30 07:00:38;;;;;;;12.17;5.40;;;3.40;99.90;;;;;;4977880;29;20451;-57
2023/01/30 07:03:10;;;;;;;13.70;7.90;;;3.50;99.90;;;;;;4978767;29;20447;-56
2023/01/30 07:05:37;;;;;;;12.67;6.37;;;3.50;99.90;;;;;;4978002;29;20443;-58
2023/01/30 07:08:04;;;;;;;12.17;6.20;;;3.50;99.90;;;;;;4978509;29;20455;-58
2023/01/30 07:10:31;;;;;;;13.23;6.50;;;3.60;99.90;;;;;;4978344;29;20439;-58
2023/01/30 07:12:58;;;;;;;7.30;4.80;;;3.60;99.90;;;;;;4978199;29;20448;-59
2023/01/30 07:15:25;;;;;;;10.03;6.90;;;3.60;99.90;;;;;;4978433;29;20443;-58
2023/01/30 07:17:52;;;;;;;12.07;6.40;;;3.70;99.90;;;;;;4978103;29;20443;-60
2023/01/30 07:20:20;;;;;;;9.50;5.57;;;3.70;99.90;;;;;;4976983;29;20518;-60
2023/01/30 07:22:50;;;;;;;9.83;7.37;;;3.80;99.90;;;;;;4977199;29;20503;-60
2023/01/30 07:25:17;;;;;;;10.87;6.20;;;3.80;99.90;;;;;;4977471;29;20444;-58
2023/01/30 07:27:49;;;;;;;9.60;6.20;;;3.90;99.90;;;;;;4977180;29;20491;-59
2023/01/30 07:30:17;;;;;;;9.90;4.70;;;3.90;99.90;;;;;;4977256;29;20428;-59
2023/01/30 07:32:43;;;;;;;9.37;5.17;;;4.00;99.90;;;;;;4977452;29;20479;-58
2023/01/30 07:35:10;;;;;;;5.53;4.00;;;4.00;99.90;;;;;;4977743;29;20481;-58
2023/01/30 07:37:39;;;;;;;10.17;6.30;;;4.10;99.90;;;;;;4977710;29;20496;-58
2023/01/30 07:40:09;;;;;;;9.90;4.97;;;4.10;99.90;;;;;;4977763;29;20463;-57
2023/01/30 07:42:36;;;;;;;8.07;4.60;;;4.10;99.90;;;;;;4977839;29;20463;-54
2023/01/30 07:45:04;;;;;;;8.20;4.63;;;4.20;99.90;;;;;;4976251;29;20448;-57
2023/01/30 07:47:31;;;;;;;5.57;2.50;;;4.20;99.90;;;;;;4976479;28;20511;-57
2023/01/30 07:49:58;;;;;;;3.87;3.17;;;4.30;99.90;;;;;;4980786;29;20458;-57
2023/01/30 07:52:24;;;;;;;6.77;5.33;;;4.30;99.90;;;;;;4981069;29;20471;-60
2023/01/30 07:54:53;;;;;;;5.30;3.37;;;4.40;99.90;;;;;;4981295;29;20467;-60
2023/01/30 07:57:20;;;;;;;15.00;4.00;;;4.40;99.90;;;;;;4980377;29;20473;-55
2023/01/30 07:59:46;;;;;;;5.40;4.10;;;4.40;99.90;;;;;;4980647;29;20608;-56
2023/01/30 08:02:13;;;;;;;6.30;3.53;;;4.40;99.90;;;;;;4980669;29;20459;-58
2023/01/30 08:04:40;;;;;;;6.27;3.60;;;4.50;99.90;;;;;;4981420;29;20475;-55
2023/01/30 08:07:07;;;;;;;5.93;3.50;;;4.50;99.90;;;;;;4981126;29;20460;-60
2023/01/30 08:09:34;;;;;;;2.03;1.43;;;4.50;99.90;;;;;;4981262;29;20424;-55
2023/01/30 08:12:02;;;;;;;4.70;3.13;;;4.60;99.90;;;;;;4981182;29;20447;-59
2023/01/30 08:14:31;;;;;;;8.30;3.67;;;4.60;99.90;;;;;;4981154;29;20432;-54
2023/01/30 08:16:57;;;;;;;4.40;3.30;;;4.60;99.90;;;;;;4981328;29;20455;-55
2023/01/30 08:19:24;;;;;;;5.40;2.90;;;4.70;99.90;;;;;;4981206;29;20503;-59
2023/01/30 08:21:51;;;;;;;4.90;2.67;;;4.70;99.90;;;;;;4979359;29;20431;-57
2023/01/30 08:24:18;;;;;;;3.30;2.03;;;4.80;99.90;;;;;;4979034;29;20530;-54
2023/01/30 08:26:47;;;;;;;3.73;2.53;;;4.80;99.90;;;;;;4983679;28;20432;-58
2023/01/30 08:29:15;;;;;;;7.10;3.80;;;4.80;99.90;;;;;;4983639;28;20436;-52
2023/01/30 08:31:42;;;;;;;3.67;1.73;;;5.10;99.90;;;;;;4983669;28;20424;-59
2023/01/30 08:34:09;;;;;;;3.53;2.73;;;5.10;99.90;;;;;;4983513;28;20408;-59
2023/01/30 08:36:38;;;;;;;5.60;3.50;;;5.00;99.90;;;;;;4983395;28;20427;-53
2023/01/30 08:39:06;;;;;;;2.37;2.17;;;5.00;99.90;;;;;;4983300;28;20467;-59
2023/01/30 08:41:33;;;;;;;4.53;2.20;;;5.00;99.90;;;;;;4983418;28;20431;-59
2023/01/30 08:43:59;;;;;;;2.67;2.47;;;5.00;99.90;;;;;;4983339;28;20467;-57
2023/01/30 08:46:28;;;;;;;3.20;2.80;;;5.00;99.90;;;;;;4983353;28;20404;-59
2023/01/30 08:48:55;;;;;;;10.60;4.73;;;5.00;99.90;;;;;;4983151;28;20452;-56
2023/01/30 08:51:21;;;;;;;5.13;2.60;;;4.90;99.90;;;;;;4983218;28;20419;-53
2023/01/30 08:53:48;;;;;;;3.50;2.50;;;4.90;99.90;;;;;;4983084;28;20439;-53
2023/01/30 08:56:15;;;;;;;2.70;1.40;;;5.00;99.90;;;;;;4983222;28;20431;-50
2023/01/30 08:58:45;;;;;;;8.70;3.80;;;5.00;99.90;;;;;;4982464;28;20443;-56
2023/01/30 09:01:12;;;;;;;2.70;1.97;;;5.00;99.90;;;;;;4982289;28;20431;-51
2023/01/30 09:03:40;;;;;;;2.43;2.03;;;5.00;99.90;;;;;;4982784;28;20443;-54
2023/01/30 09:06:07;;;;;;;3.87;2.30;;;5.10;99.90;;;;;;4982936;28;20412;-58
2023/01/30 09:08:35;;;;;;;2.17;1.57;;;5.00;99.90;;;;;;4982761;28;20440;-57
2023/01/30 09:11:03;;;;;;;3.10;2.10;;;5.10;99.90;;;;;;4982832;28;20451;-57
2023/01/30 09:13:31;;;;;;;3.50;2.10;;;5.10;99.90;;;;;;4982676;28;20504;-54
2023/01/30 09:15:58;;;;;;;5.83;2.93;;;5.30;99.90;;;;;;4982709;28;20420;-56
2023/01/30 09:18:26;;;;;;;2.27;1.73;;;5.40;99.90;;;;;;4982652;28;20455;-56
2023/01/30 09:21:02;;;;;;;1.90;1.63;;;5.40;99.90;;;;;;4982556;28;20507;-58
2023/01/30 09:23:31;;;;;;;2.30;1.80;;;5.40;99.90;;;;;;4981525;29;20491;-59
2023/01/30 09:25:59;;;;;;;3.00;1.97;;;5.40;99.90;;;;;;4981969;28;20443;-57
2023/01/30 09:28:26;;;;;;;2.30;1.47;;;5.40;99.90;;;;;;4981728;29;20442;-56
2023/01/30 09:30:53;;;;;;;2.93;1.70;;;5.30;99.90;;;;;;4981480;29;20431;-57
2023/01/30 09:33:20;;;;;;;3.30;2.00;;;5.40;99.90;;;;;;4980601;29;20460;-56
2023/01/30 09:35:47;;;;;;;2.70;1.77;;;5.50;99.90;;;;;;4980810;29;20491;-55
2023/01/30 09:38:16;;;;;;;5.17;2.73;;;5.50;99.90;;;;;;4980672;29;20511;-59
2023/01/30 09:41:02;;;;;;;2.40;2.07;;;5.50;99.90;;;;;;4980474;29;20475;-58
2023/01/30 09:43:54;;;;;;;2.60;1.83;;;5.50;99.90;;;;;;4980389;29;20465;-52
2023/01/30 09:46:32;;;;;;;7.03;1.73;;;5.50;99.90;;;;;;4981221;28;20426;-58
2023/01/30 09:49:10;;;;;;;14.90;3.70;;;5.60;99.90;;;;;;4981555;28;20497;-60
2023/01/30 09:51:46;;;;;;;2.47;1.73;;;6.20;99.90;;;;;;4981425;29;20431;-60
2023/01/30 09:54:23;;;;;;;2.50;1.57;;;6.50;99.90;;;;;;4980684;29;20482;-59
2023/01/30 09:57:14;;;;;;;43.53;3.13;;;6.70;99.90;;;;;;4980683;29;20450;-60
2023/01/30 09:59:51;;;;;;;4.47;1.77;;;6.60;99.90;;;;;;4972937;29;20491;-60
2023/01/30 10:02:39;;;;;;;5.40;1.57;;;6.60;99.90;;;;;;4979498;29;20436;-58
2023/01/30 10:05:07;;;;;;;3.93;1.37;;;6.50;99.90;;;;;;4969539;29;20504;-58
2023/01/30 10:07:49;;;;;;;12.57;2.40;;;6.40;99.90;;;;;;4980279;29;20439;-60
2023/01/30 10:10:32;;;;;;;5.23;2.13;;;6.70;99.90;;;;;;4980529;28;20487;-57
2023/01/30 10:13:09;;;;;;;3.03;2.17;;;6.80;99.90;;;;;;4980286;29;20432;-55
2023/01/30 10:15:48;;;;;;;1.13;0.93;;;6.50;99.90;;;;;;4979188;29;20479;-56
2023/01/30 10:18:29;;;;;;;2.73;1.17;;;6.40;99.90;;;;;;4979882;29;20542;-58
2023/01/30 10:21:11;;;;;;;1.83;1.00;;;6.30;99.90;;;;;;4979521;29;20483;-57
2023/01/30 10:24:08;;;;;;;4.27;1.97;;;6.30;99.90;;;;;;4979880;29;20463;-58
2023/01/30 10:26:39;;;;;;;2.97;0.80;;;6.30;99.90;;;;;;4979452;29;20428;-56
2023/01/30 10:29:15;;;;;;;4.03;1.77;;;6.20;99.90;;;;;;4979263;29;20448;-57
2023/01/30 10:31:47;;;;;;;1.90;0.97;;;6.30;99.90;;;;;;4979291;29;20432;-58
2023/01/30 10:34:19;;;;;;;6.77;1.90;;;6.50;99.90;;;;;;4977945;29;20428;-55
2023/01/30 10:36:54;;;;;;;5.00;1.07;;;7.10;99.90;;;;;;4979421;29;20442;-59
2023/01/30 10:39:35;;;;;;;4.90;1.20;;;7.70;99.90;;;;;;4978935;29;20455;-60
2023/01/30 10:42:11;;;;;;;5.70;1.90;;;7.80;99.90;;;;;;4978893;29;20428;-55
2023/01/30 10:44:39;;;;;;;3.03;1.17;;;7.50;99.90;;;;;;4978130;29;20428;-57
2023/01/30 10:47:39;;;;;;;10.07;2.50;;;7.30;99.90;;;;;;4978783;29;20447;-57
2023/01/30 10:50:14;;;;;;;3.87;1.30;;;7.20;99.90;;;;;;4977929;29;20467;-57
2023/01/30 10:52:49;;;;;;;5.63;2.37;;;7.00;99.90;;;;;;4978929;29;20435;-54
2023/01/30 10:55:26;;;;;;;14.80;2.03;;;6.80;99.90;;;;;;4978966;29;20438;-55
2023/01/30 10:58:01;;;;;;;3.67;1.50;;;6.70;99.90;;;;;;4978874;29;20471;-59
2023/01/30 11:00:34;;;;;;;12.00;1.90;;;6.60;99.90;;;;;;4978519;29;20547;-61
2023/01/30 11:03:15;;;;;;;3.33;1.33;;;6.60;99.90;;;;;;4978838;29;20464;-60
2023/01/30 11:05:47;;;;;;;13.63;1.67;;;6.60;99.90;;;;;;4978777;29;20472;-56
2023/01/30 11:08:21;;;;;;;13.97;2.87;;;6.50;99.90;;;;;;4978820;29;20464;-60
2023/01/30 11:10:48;;;;;;;8.30;1.90;;;6.40;99.90;;;;;;4978821;29;20459;-58
2023/01/30 11:13:20;;;;;;;3.70;1.17;;;6.40;99.90;;;;;;4979072;29;20444;-55
2023/01/30 11:15:50;;;;;;;3.37;2.77;;;6.40;99.90;;;;;;4978400;29;20432;-58
2023/01/30 11:18:19;;;;;;;1.50;1.00;;;6.40;99.90;;;;;;4979186;29;20436;-58
2023/01/30 11:20:55;;;;;;;5.03;1.43;;;6.40;99.90;;;;;;4978990;29;20488;-58
2023/01/30 11:23:25;;;;;;;5.60;1.30;;;6.40;99.90;;;;;;4978713;28;20447;-59
2023/01/30 11:25:55;;;;;;;1.40;1.30;;;6.40;99.90;;;;;;4978871;28;20483;-54
2023/01/30 11:28:25;;;;;;;2.70;1.40;;;6.40;99.90;;;;;;4978236;29;20412;-59
2023/01/30 11:30:57;;;;;;;5.13;1.90;;;6.50;99.90;;;;;;4977799;29;20452;-60
2023/01/30 11:33:33;;;;;;;9.03;2.53;;;6.60;99.90;;;;;;4978167;29;20420;-58
2023/01/30 11:36:01;;;;;;;0.90;0.80;;;6.70;99.90;;;;;;4977732;29;20443;-55
2023/01/30 11:38:30;;;;;;;5.00;1.57;;;6.60;99.90;;;;;;4977452;29;20464;-58
2023/01/30 11:41:18;;;;;;;7.33;1.50;;;6.60;99.90;;;;;;4977680;29;20475;-56
2023/01/30 11:43:47;;;;;;;4.03;1.90;;;6.70;99.90;;;;;;4978033;29;20528;-58
2023/01/30 11:46:19;;;;;;;5.43;1.40;;;6.80;99.90;;;;;;4977459;29;20439;-58
2023/01/30 11:48:52;;;;;;;6.23;1.70;;;6.80;99.90;;;;;;4978197;29;20432;-58
2023/01/30 11:51:22;;;;;;;13.00;2.40;;;6.80;99.90;;;;;;4978319;29;20412;-56
2023/01/30 11:53:57;;;;;;;4.53;2.57;;;6.70;99.90;;;;;;4978025;29;20408;-57
2023/01/30 11:56:29;;;;;;;10.00;1.80;;;6.70;99.90;;;;;;4978033;29;20459;-60
2023/01/30 11:59:00;;;;;;;3.93;1.30;;;6.60;99.90;;;;;;4977768;29;20452;-56
2023/01/30 12:01:31;;;;;;;2.23;1.73;;;6.60;99.90;;;;;;4978560;29;20459;-59
2023/01/30 12:03:59;;;;;;;3.70;1.83;;;6.60;99.90;;;;;;4977419;29;20496;-56
2023/01/30 12:06:31;;;;;;;13.83;2.43;;;6.60;99.90;;;;;;4977414;29;20435;-56
2023/01/30 12:08:59;;;;;;;2.70;2.10;;;6.60;99.90;;;;;;4978068;29;20412;-56
2023/01/30 12:11:30;;;;;;;4.60;1.63;;;6.60;99.90;;;;;;4977528;29;20448;-56
2023/01/30 12:14:18;;;;;;;3.77;2.40;;;6.60;99.90;;;;;;4978132;29;20427;-56
2023/01/30 12:16:58;;;;;;;1.60;0.83;;;6.50;99.90;;;;;;4978480;29;20443;-54
2023/01/30 12:19:36;;;;;;;15.93;1.77;;;6.10;99.90;;;;;;4977384;29;20446;-56
2023/01/30 12:22:16;;;;;;;4.77;1.70;;;5.80;99.90;;;;;;4977516;29;20483;-56
2023/01/30 12:24:48;;;;;;;2.20;1.10;;;5.40;99.90;;;;;;4978499;29;20443;-61
2023/01/30 12:27:23;;;;;;;4.17;1.77;;;5.40;99.90;;;;;;4978094;29;20440;-53
2023/01/30 12:30:00;;;;;;;8.93;3.43;;;5.40;99.90;;;;;;4977741;29;20456;-58
2023/01/30 12:32:29;;;;;;;2.23;1.50;;;5.50;99.90;;;;;;4977525;29;20448;-56
2023/01/30 12:34:56;;;;;;;7.13;1.27;;;5.70;99.90;;;;;;4980362;28;20443;-57
2023/01/30 12:37:41;;;;;;;6.33;1.50;;;5.90;99.90;;;;;;4981293;29;20467;-58
2023/01/30 12:40:18;;;;;;;2.97;2.20;;;6.00;99.90;;;;;;4981395;29;20479;-56
2023/01/30 12:43:12;;;;;;;9.70;2.47;;;6.20;99.90;;;;;;4981583;29;21721;-53
2023/01/30 12:45:47;;;;;;;10.60;2.03;;;6.30;99.90;;;;;;4981385;28;20458;-56
2023/01/30 12:48:36;;;;;;;6.53;1.70;;;6.30;99.90;;;;;;4981124;29;20455;-52
2023/01/30 12:51:14;;;;;;;6.30;1.80;;;6.30;99.90;;;;;;4979776;29;20459;-57
2023/01/30 12:53:56;;;;;;;1.07;0.70;;;6.20;99.90;;;;;;4981592;29;20512;-58
2023/01/30 12:56:52;;;;;;;6.50;1.67;;;6.20;99.90;;;;;;4982051;29;20420;-57
2023/01/30 12:59:30;;;;;;;4.53;1.27;;;6.20;99.90;;;;;;4981328;28;20470;-58
2023/01/30 13:02:22;;;;;;;3.43;1.57;;;6.30;99.90;;;;;;4980931;29;20470;-56
2023/01/30 13:05:03;;;;;;;6.10;1.90;;;6.40;99.90;;;;;;4980792;29;20483;-59
2023/01/30 13:07:43;;;;;;;6.47;2.30;;;6.50;99.90;;;;;;4980468;29;20452;-59
2023/01/30 13:10:22;;;;;;;2.90;0.90;;;6.60;99.90;;;;;;4980385;29;20451;-56
2023/01/30 13:12:56;;;;;;;10.30;1.80;;;6.60;99.90;;;;;;4980661;29;20444;-57
2023/01/30 13:15:32;;;;;;;14.60;1.37;;;6.60;99.90;;;;;;4980148;29;20877;-58
2023/01/30 13:18:13;;;;;;;2.90;2.43;;;6.60;99.90;;;;;;4980691;28;20435;-58